createdAt,value
2016-07-15T00:00:37.761Z,14.91
2016-07-15T00:01:37.750Z,15.04
2016-07-15T00:02:37.021Z,14.91
2016-07-15T00:03:37.011Z,14.96
2016-07-15T00:04:37.711Z,14.96
2016-07-15T00:05:37.678Z,14.95
2016-07-15T00:06:37.696Z,14.88
2016-07-15T00:07:37.672Z,14.88
2016-07-15T00:08:37.659Z,14.85
2016-07-15T00:09:36.921Z,14.8
2016-07-15T00:10:37.621Z,14.82
2016-07-15T00:11:37.606Z,14.82
2016-07-15T00:12:37.582Z,14.72
2016-07-15T00:13:37.564Z,14.82
2016-07-15T00:14:37.552Z,14.79
2016-07-15T00:15:37.531Z,14.92
2016-07-15T00:16:37.520Z,14.85
2016-07-15T00:17:36.799Z,14.91
2016-07-15T00:18:37.489Z,14.88
2016-07-15T00:19:37.471Z,14.88
2016-07-15T00:20:36.742Z,14.8
2016-07-15T00:21:36.713Z,14.91
2016-07-15T00:22:37.427Z,14.89
2016-07-15T00:23:37.417Z,14.88
2016-07-15T00:24:37.387Z,14.88
2016-07-15T00:25:37.376Z,14.85
2016-07-15T00:26:37.371Z,14.7
2016-07-15T00:27:37.361Z,14.69
2016-07-15T00:28:37.326Z,14.69
2016-07-15T00:29:37.321Z,14.58
2016-07-15T00:30:36.609Z,14.69
2016-07-15T00:31:37.291Z,14.73
2016-07-15T00:32:36.559Z,14.65
2016-07-15T00:33:37.258Z,14.69
2016-07-15T00:34:37.293Z,14.73
2016-07-15T00:35:36.502Z,14.79
2016-07-15T00:36:37.200Z,14.77
2016-07-15T00:37:36.475Z,14.75
2016-07-15T00:38:37.173Z,14.75
2016-07-15T00:39:37.156Z,14.68
2016-07-15T00:40:37.152Z,14.72
2016-07-15T00:41:37.139Z,14.66
2016-07-15T00:42:37.112Z,14.72
2016-07-15T00:43:36.381Z,14.87
2016-07-15T00:44:37.091Z,14.88
2016-07-15T00:45:37.069Z,14.87
2016-07-15T00:46:36.338Z,14.85
2016-07-15T00:47:36.388Z,14.73
2016-07-15T00:48:37.095Z,14.72
2016-07-15T00:49:37.011Z,14.58
2016-07-15T00:50:37.076Z,14.51
2016-07-15T00:51:36.977Z,14.25
2016-07-15T00:52:36.961Z,14.26
2016-07-15T00:53:36.935Z,14.35
2016-07-15T00:54:36.213Z,14.38
2016-07-15T00:55:36.904Z,14.38
2016-07-15T00:56:36.922Z,14.29
2016-07-15T00:57:36.160Z,14.3
2016-07-15T00:58:36.861Z,14.38
2016-07-15T00:59:36.851Z,14.28
2016-07-15T01:00:36.123Z,14.35
2016-07-15T01:01:36.810Z,14.28
2016-07-15T01:02:36.799Z,14.25
2016-07-15T01:03:36.059Z,14.29
2016-07-15T01:04:36.762Z,14.42
2016-07-15T01:05:36.758Z,14.38
2016-07-15T01:06:36.725Z,14.33
2016-07-15T01:07:36.716Z,14.44
2016-07-15T01:08:36.732Z,14.47
2016-07-15T01:09:36.668Z,14.36
2016-07-15T01:10:36.684Z,14.21
2016-07-15T01:11:35.220Z,14.21
2016-07-15T01:12:36.633Z,14.35
2016-07-15T01:13:36.619Z,14.33
2016-07-15T01:14:35.878Z,14.29
2016-07-15T01:15:36.580Z,14.4
2016-07-15T01:16:36.606Z,14.25
2016-07-15T01:17:36.550Z,14.25
2016-07-15T01:18:36.555Z,14.2
2016-07-15T01:19:36.512Z,14.18
2016-07-15T01:20:36.508Z,14.13
2016-07-15T01:21:35.756Z,14.07
2016-07-15T01:22:36.479Z,13.92
2016-07-15T01:23:35.742Z,13.78
2016-07-15T01:24:36.664Z,13.81
2016-07-15T01:25:34.989Z,13.82
2016-07-15T01:26:36.409Z,13.93
2016-07-15T01:27:36.384Z,13.97
2016-07-15T01:28:36.569Z,14.02
2016-07-15T01:29:36.378Z,14.1
2016-07-15T01:30:36.353Z,14.18
2016-07-15T01:31:36.319Z,14.11
2016-07-15T01:32:34.877Z,14.18
2016-07-15T01:33:36.291Z,14.3
2016-07-15T01:34:36.300Z,14.26
2016-07-15T01:35:36.259Z,14.32
2016-07-15T01:36:35.524Z,14.35
2016-07-15T01:37:36.220Z,14.35
2016-07-15T01:38:36.211Z,14.35
2016-07-15T01:39:36.204Z,14.32
2016-07-15T01:40:35.482Z,14.3
2016-07-15T01:41:36.186Z,14.38
2016-07-15T01:42:36.188Z,14.39
2016-07-15T01:43:35.420Z,14.44
2016-07-15T01:44:36.171Z,14.29
2016-07-15T01:45:35.375Z,14.46
2016-07-15T01:46:36.087Z,14.48
2016-07-15T01:47:36.067Z,14.42
2016-07-15T01:48:36.056Z,14.39
2016-07-15T01:49:35.326Z,14.44
2016-07-15T01:50:35.310Z,14.39
2016-07-15T01:51:35.998Z,14.46
2016-07-15T01:52:35.281Z,14.36
2016-07-15T01:53:35.271Z,14.48
2016-07-15T01:54:35.951Z,14.5
2016-07-15T01:55:35.242Z,14.57
2016-07-15T01:56:35.920Z,14.5
2016-07-15T01:57:35.322Z,14.48
2016-07-15T01:58:35.913Z,14.47
2016-07-15T01:59:35.878Z,14.38
2016-07-15T02:00:35.925Z,14.46
2016-07-15T02:01:35.848Z,14.54
2016-07-15T02:02:35.824Z,14.57
2016-07-15T02:03:35.811Z,14.6
2016-07-15T02:04:35.082Z,14.6
2016-07-15T02:05:35.776Z,14.7
2016-07-15T02:06:35.770Z,14.72
2016-07-15T02:07:35.751Z,14.73
2016-07-15T02:08:35.738Z,14.69
2016-07-15T02:09:35.712Z,14.79
2016-07-15T02:10:35.707Z,14.7
2016-07-15T02:11:35.683Z,14.73
2016-07-15T02:12:35.668Z,14.62
2016-07-15T02:13:35.645Z,14.68
2016-07-15T02:14:35.679Z,14.6
2016-07-15T02:15:35.661Z,14.73
2016-07-15T02:16:35.647Z,14.8
2016-07-15T02:17:35.620Z,14.87
2016-07-15T02:18:35.601Z,14.79
2016-07-15T02:19:35.591Z,14.87
2016-07-15T02:20:35.602Z,14.79
2016-07-15T02:21:35.560Z,14.75
2016-07-15T02:22:35.562Z,14.73
2016-07-15T02:23:35.531Z,14.62
2016-07-15T02:24:35.519Z,14.58
2016-07-15T02:25:35.502Z,14.58
2016-07-15T02:26:35.491Z,14.53
2016-07-15T02:27:35.473Z,14.65
2016-07-15T02:28:34.731Z,14.73
2016-07-15T02:29:34.761Z,14.77
2016-07-15T02:30:35.441Z,14.72
2016-07-15T02:31:34.679Z,14.8
2016-07-15T02:32:35.381Z,14.73
2016-07-15T02:33:35.372Z,14.8
2016-07-15T02:34:35.362Z,14.85
2016-07-15T02:35:34.623Z,14.89
2016-07-15T02:36:35.329Z,14.84
2016-07-15T02:37:34.618Z,14.84
2016-07-15T02:38:35.291Z,14.94
2016-07-15T02:39:35.269Z,14.89
2016-07-15T02:40:35.271Z,14.85
2016-07-15T02:41:35.240Z,14.91
2016-07-15T02:42:35.229Z,14.82
2016-07-15T02:43:35.221Z,14.75
2016-07-15T02:44:35.213Z,14.73
2016-07-15T02:45:35.178Z,14.79
2016-07-15T02:46:34.441Z,14.8
2016-07-15T02:47:35.153Z,14.87
2016-07-15T02:48:35.131Z,14.85
2016-07-15T02:49:35.130Z,14.85
2016-07-15T02:50:35.111Z,14.87
2016-07-15T02:51:35.076Z,14.85
2016-07-15T02:52:35.071Z,14.94
2016-07-15T02:53:35.089Z,14.98
2016-07-15T02:54:34.317Z,14.8
2016-07-15T02:55:35.077Z,14.95
2016-07-15T02:56:34.299Z,14.94
2016-07-15T02:57:34.279Z,14.91
2016-07-15T02:58:34.987Z,14.85
2016-07-15T02:59:35.054Z,14.96
2016-07-15T03:00:34.990Z,14.89
2016-07-15T03:01:34.983Z,14.96
2016-07-15T03:02:34.227Z,14.95
2016-07-15T03:03:34.939Z,15
2016-07-15T03:04:34.913Z,14.92
2016-07-15T03:05:34.966Z,14.94
2016-07-15T03:06:34.886Z,15.06
2016-07-15T03:07:34.869Z,15.07
2016-07-15T03:08:34.869Z,15.04
2016-07-15T03:10:34.846Z,15.09
2016-07-15T03:11:34.829Z,15.1
2016-07-15T03:12:34.083Z,15.07
2016-07-15T03:13:34.799Z,15.1
2016-07-15T03:14:34.760Z,15.1
2016-07-15T03:15:34.754Z,15.09
2016-07-15T03:16:34.018Z,15.1
2016-07-15T03:17:34.007Z,15.13
2016-07-15T03:18:34.697Z,15.09
2016-07-15T03:19:33.958Z,15.17
2016-07-15T03:20:33.945Z,15.12
2016-07-15T03:21:33.935Z,15.12
2016-07-15T03:22:34.646Z,15.17
2016-07-15T03:23:34.617Z,15.12
2016-07-15T03:24:34.618Z,15.16
2016-07-15T03:25:33.876Z,15.1
2016-07-15T03:26:34.565Z,15.12
2016-07-15T03:27:34.559Z,15.13
2016-07-15T03:28:34.559Z,15.12
2016-07-15T03:29:34.544Z,15.16
2016-07-15T03:30:33.783Z,15.13
2016-07-15T03:31:34.496Z,15.16
2016-07-15T03:32:34.487Z,15.21
2016-07-15T03:33:33.735Z,15.12
2016-07-15T03:34:34.450Z,15.2
2016-07-15T03:35:34.539Z,15.12
2016-07-15T03:36:34.429Z,15.09
2016-07-15T03:37:34.409Z,15.09
2016-07-15T03:38:34.313Z,15.12
2016-07-15T03:39:34.299Z,15.13
2016-07-15T03:40:33.557Z,15.06
2016-07-15T03:41:34.279Z,15.16
2016-07-15T03:42:33.534Z,15.14
2016-07-15T03:43:34.240Z,15.21
2016-07-15T03:44:34.237Z,15.2
2016-07-15T03:45:34.208Z,15.22
2016-07-15T03:46:34.190Z,15.12
2016-07-15T03:47:33.453Z,15.22
2016-07-15T03:48:34.178Z,15.1
2016-07-15T03:49:34.136Z,15.1
2016-07-15T03:50:34.124Z,15.13
2016-07-15T03:51:34.171Z,15.1
2016-07-15T03:52:34.109Z,15.12
2016-07-15T03:53:33.358Z,15.16
2016-07-15T03:54:34.074Z,15.17
2016-07-15T03:55:33.357Z,15.17
2016-07-15T03:56:34.058Z,15.25
2016-07-15T03:57:34.074Z,15.2
2016-07-15T03:58:34.006Z,15.13
2016-07-15T03:59:33.998Z,15.25
2016-07-15T04:00:33.269Z,15.16
2016-07-15T04:01:33.963Z,15.14
2016-07-15T04:02:33.948Z,15.2
2016-07-15T04:03:33.933Z,15.24
2016-07-15T04:04:33.935Z,15.13
2016-07-15T04:05:33.188Z,15.22
2016-07-15T04:06:33.875Z,15.17
2016-07-15T04:07:33.871Z,15.22
2016-07-15T04:08:33.126Z,15.24
2016-07-15T04:09:33.936Z,15.22
2016-07-15T04:10:33.824Z,15.22
2016-07-15T04:11:33.794Z,15.25
2016-07-15T04:12:33.786Z,15.32
2016-07-15T04:13:33.055Z,15.39
2016-07-15T04:14:33.757Z,15.34
2016-07-15T04:15:33.759Z,15.32
2016-07-15T04:16:33.724Z,15.32
2016-07-15T04:17:33.713Z,15.35
2016-07-15T04:18:33.698Z,15.31
2016-07-15T04:19:33.678Z,15.4
2016-07-15T04:20:33.652Z,15.39
2016-07-15T04:21:33.654Z,15.37
2016-07-15T04:22:33.630Z,15.32
2016-07-15T04:23:33.624Z,15.32
2016-07-15T04:24:32.888Z,15.34
2016-07-15T04:25:33.597Z,15.42
2016-07-15T04:26:33.573Z,15.4
2016-07-15T04:27:32.841Z,15.42
2016-07-15T04:28:33.548Z,15.44
2016-07-15T04:29:33.533Z,15.42
2016-07-15T04:30:32.785Z,15.42
2016-07-15T04:31:33.490Z,15.31
2016-07-15T04:32:33.468Z,15.22
2016-07-15T04:33:33.460Z,15.27
2016-07-15T04:34:33.439Z,15.29
2016-07-15T04:35:33.428Z,15.32
2016-07-15T04:36:32.709Z,15.31
2016-07-15T04:37:33.417Z,15.31
2016-07-15T04:38:33.379Z,15.42
2016-07-15T04:39:33.368Z,15.32
2016-07-15T04:40:32.642Z,15.39
2016-07-15T04:41:33.341Z,15.37
2016-07-15T04:42:33.323Z,15.4
2016-07-15T04:43:33.303Z,15.37
2016-07-15T04:44:32.577Z,15.37
2016-07-15T04:45:32.560Z,15.25
2016-07-15T04:46:33.258Z,15.31
2016-07-15T04:47:33.251Z,15.31
2016-07-15T04:48:33.235Z,15.34
2016-07-15T04:49:33.229Z,15.35
2016-07-15T04:50:32.535Z,15.34
2016-07-15T04:51:32.470Z,15.32
2016-07-15T04:52:33.169Z,15.35
2016-07-15T04:53:31.725Z,15.46
2016-07-15T04:54:32.426Z,15.52
2016-07-15T04:55:32.397Z,15.42
2016-07-15T04:56:33.109Z,15.46
2016-07-15T04:57:33.098Z,15.44
2016-07-15T04:58:33.077Z,15.39
2016-07-15T04:59:33.104Z,15.47
2016-07-15T05:00:33.044Z,15.44
2016-07-15T05:01:33.027Z,15.37
2016-07-15T05:02:33.009Z,15.37
2016-07-15T05:03:33.019Z,15.39
2016-07-15T05:04:32.977Z,15.4
2016-07-15T05:05:32.977Z,15.39
2016-07-15T05:06:33.028Z,15.28
2016-07-15T05:07:32.940Z,15.37
2016-07-15T05:08:32.239Z,15.42
2016-07-15T05:09:32.904Z,15.42
2016-07-15T05:10:31.456Z,15.5
2016-07-15T05:11:32.885Z,15.43
2016-07-15T05:12:32.161Z,15.4
2016-07-15T05:13:32.854Z,15.42
2016-07-15T05:14:32.885Z,15.39
2016-07-15T05:15:31.386Z,15.43
2016-07-15T05:16:32.829Z,15.53
2016-07-15T05:17:32.783Z,15.52
2016-07-15T05:18:32.781Z,15.54
2016-07-15T05:19:32.997Z,15.54
2016-07-15T05:20:32.750Z,15.6
2016-07-15T05:21:32.015Z,15.57
2016-07-15T05:22:32.724Z,15.5
2016-07-15T05:23:32.697Z,15.5
2016-07-15T05:24:32.750Z,15.57
2016-07-15T05:25:32.663Z,15.68
2016-07-15T05:26:32.730Z,15.68
2016-07-15T05:27:32.640Z,15.61
2016-07-15T05:28:32.624Z,15.62
2016-07-15T05:29:31.165Z,15.75
2016-07-15T05:30:32.599Z,15.8
2016-07-15T05:31:32.569Z,15.8
2016-07-15T05:32:32.566Z,15.72
2016-07-15T05:33:32.537Z,15.72
2016-07-15T05:34:32.540Z,15.79
2016-07-15T05:35:32.522Z,15.75
2016-07-15T05:36:32.506Z,15.72
2016-07-15T05:37:31.771Z,15.79
2016-07-15T05:38:32.489Z,15.75
2016-07-15T05:39:32.443Z,15.79
2016-07-15T05:40:32.452Z,15.76
2016-07-15T05:41:32.426Z,15.79
2016-07-15T05:42:31.684Z,15.83
2016-07-15T05:43:32.399Z,15.92
2016-07-15T05:44:32.388Z,15.9
2016-07-15T05:45:31.723Z,15.87
2016-07-15T05:46:32.380Z,15.87
2016-07-15T05:47:32.335Z,15.97
2016-07-15T05:48:32.377Z,16.07
2016-07-15T05:49:30.870Z,16.07
2016-07-15T05:50:32.357Z,16.08
2016-07-15T05:51:32.274Z,16.05
2016-07-15T05:52:32.270Z,16.02
2016-07-15T05:53:32.244Z,16.07
2016-07-15T05:54:32.230Z,16.02
2016-07-15T05:55:32.203Z,15.95
2016-07-15T05:56:31.499Z,15.98
2016-07-15T05:57:32.176Z,16.05
2016-07-15T05:58:32.174Z,16.12
2016-07-15T05:59:32.157Z,16.27
2016-07-15T06:00:31.426Z,16.26
2016-07-15T06:01:32.135Z,16.26
2016-07-15T06:02:32.122Z,16.36
2016-07-15T06:03:32.095Z,16.36
2016-07-15T06:04:32.096Z,16.38
2016-07-15T06:05:32.050Z,16.39
2016-07-15T06:06:32.099Z,16.36
2016-07-15T06:07:31.325Z,16.36
2016-07-15T06:08:31.311Z,16.36
2016-07-15T06:09:30.690Z,16.34
2016-07-15T06:10:31.997Z,16.36
2016-07-15T06:11:31.979Z,16.41
2016-07-15T06:12:30.542Z,16.45
2016-07-15T06:13:31.225Z,16.45
2016-07-15T06:14:31.980Z,16.46
2016-07-15T06:15:31.924Z,16.42
2016-07-15T06:16:31.190Z,16.43
2016-07-15T06:17:31.176Z,16.42
2016-07-15T06:18:31.876Z,16.43
2016-07-15T06:19:31.864Z,16.24
2016-07-15T06:20:31.856Z,16.28
2016-07-15T06:21:31.837Z,16.34
2016-07-15T06:22:31.822Z,16.34
2016-07-15T06:23:31.087Z,16.32
2016-07-15T06:24:31.786Z,16.26
2016-07-15T06:25:31.055Z,16.32
2016-07-15T06:26:31.039Z,16.38
2016-07-15T06:27:31.760Z,16.42
2016-07-15T06:28:31.015Z,16.43
2016-07-15T06:29:31.715Z,16.54
2016-07-15T06:30:31.729Z,16.43
2016-07-15T06:31:31.689Z,16.6
2016-07-15T06:32:31.683Z,16.72
2016-07-15T06:33:30.947Z,16.81
2016-07-15T06:34:30.928Z,16.82
2016-07-15T06:35:31.626Z,16.96
2016-07-15T06:36:31.619Z,16.94
2016-07-15T06:37:31.604Z,17.11
2016-07-15T06:38:30.875Z,17.15
2016-07-15T06:39:33.978Z,17.22
2016-07-15T06:40:31.580Z,17.33
2016-07-15T06:41:31.555Z,17.33
2016-07-15T06:42:31.523Z,17.46
2016-07-15T06:43:30.848Z,17.33
2016-07-15T06:44:30.832Z,17.31
2016-07-15T06:45:30.069Z,17.24
2016-07-15T06:46:31.477Z,17.06
2016-07-15T06:47:31.463Z,16.71
2016-07-15T06:48:31.464Z,16.71
2016-07-15T06:49:31.439Z,16.75
2016-07-15T06:50:31.423Z,16.82
2016-07-15T06:51:31.403Z,16.9
2016-07-15T06:52:31.401Z,16.93
2016-07-15T06:53:31.389Z,16.94
2016-07-15T06:54:29.939Z,16.9
2016-07-15T06:55:29.920Z,17.12
2016-07-15T06:56:30.626Z,17.14
2016-07-15T06:57:31.315Z,17.18
2016-07-15T06:58:31.314Z,17.39
2016-07-15T06:59:31.394Z,17.44
2016-07-15T07:00:31.288Z,17.52
2016-07-15T07:01:31.273Z,17.56
2016-07-15T07:02:31.268Z,17.8
2016-07-15T07:03:31.310Z,17.77
2016-07-15T07:04:30.520Z,17.93
2016-07-15T07:05:31.257Z,18.04
2016-07-15T07:06:30.495Z,18.02
2016-07-15T07:07:30.487Z,17.98
2016-07-15T07:08:30.473Z,17.65
2016-07-15T07:09:29.807Z,17.6
2016-07-15T07:10:31.156Z,17.49
2016-07-15T07:11:29.719Z,17.46
2016-07-15T07:12:30.403Z,17.48
2016-07-15T07:13:31.104Z,17.58
2016-07-15T07:14:31.109Z,17.64
2016-07-15T07:15:31.129Z,17.87
2016-07-15T07:16:31.078Z,18.07
2016-07-15T07:17:31.061Z,17.95
2016-07-15T07:18:31.044Z,17.96
2016-07-15T07:19:31.027Z,18.11
2016-07-15T07:20:31.032Z,18.26
2016-07-15T07:21:31.015Z,18.45
2016-07-15T07:22:30.986Z,18.35
2016-07-15T07:23:31.011Z,18.45
2016-07-15T07:24:30.260Z,18.45
2016-07-15T07:25:29.516Z,18.38
2016-07-15T07:26:30.937Z,18.38
2016-07-15T07:27:30.940Z,18.44
2016-07-15T07:28:30.905Z,18.5
2016-07-15T07:29:30.915Z,18.45
2016-07-15T07:30:30.180Z,18.51
2016-07-15T07:31:30.161Z,18.22
2016-07-15T07:32:30.861Z,18.41
2016-07-15T07:33:30.870Z,18.3
2016-07-15T07:34:30.132Z,18.38
2016-07-15T07:35:30.840Z,18.33
2016-07-15T07:36:30.838Z,18.11
2016-07-15T07:37:30.097Z,18.08
2016-07-15T07:38:30.076Z,17.98
2016-07-15T07:39:30.139Z,18.05
2016-07-15T07:40:30.044Z,18.19
2016-07-15T07:41:30.753Z,18.25
2016-07-15T07:42:30.750Z,18.29
2016-07-15T07:43:30.725Z,18.35
2016-07-15T07:44:30.017Z,18.37
2016-07-15T07:45:30.707Z,18.26
2016-07-15T07:46:30.043Z,18.27
2016-07-15T07:47:30.686Z,18.27
2016-07-15T07:48:29.246Z,18.14
2016-07-15T07:49:29.933Z,18.11
2016-07-15T07:50:30.642Z,18.33
2016-07-15T07:51:29.921Z,18.52
2016-07-15T07:52:30.631Z,18.67
2016-07-15T07:53:30.607Z,18.67
2016-07-15T07:54:29.895Z,18.8
2016-07-15T07:55:30.576Z,19.11
2016-07-15T07:56:30.567Z,19.41
2016-07-15T07:57:29.832Z,19.48
2016-07-15T07:58:29.877Z,19.61
2016-07-15T07:59:29.811Z,19.58
2016-07-15T08:00:29.850Z,19.52
2016-07-15T08:01:29.785Z,19.44
2016-07-15T08:02:30.686Z,19.33
2016-07-15T08:03:30.477Z,19.07
2016-07-15T08:04:30.506Z,18.88
2016-07-15T08:05:30.456Z,18.84
2016-07-15T08:06:29.727Z,18.9
2016-07-15T08:07:30.429Z,18.9
2016-07-15T08:08:29.709Z,18.95
2016-07-15T08:09:29.696Z,18.7
2016-07-15T08:10:30.397Z,18.65
2016-07-15T08:11:29.669Z,18.82
2016-07-15T08:12:30.376Z,18.99
2016-07-15T08:13:30.368Z,19.19
2016-07-15T08:14:29.638Z,19.48
2016-07-15T08:15:30.363Z,19.67
2016-07-15T08:16:30.330Z,19.69
2016-07-15T08:17:28.890Z,19.78
2016-07-15T08:18:28.862Z,19.93
2016-07-15T08:19:29.575Z,20.13
2016-07-15T08:20:29.560Z,20.48
2016-07-15T08:21:28.831Z,20.74
2016-07-15T08:22:30.269Z,20.66
2016-07-15T08:23:30.250Z,20.6
2016-07-15T08:24:30.240Z,20.47
2016-07-15T08:25:30.220Z,20.6
2016-07-15T08:26:28.780Z,20.66
2016-07-15T08:27:30.198Z,20.43
2016-07-15T08:28:29.469Z,20.43
2016-07-15T08:29:29.459Z,20.23
2016-07-15T08:30:29.441Z,20.18
2016-07-15T08:31:29.429Z,19.98
2016-07-15T08:32:30.122Z,19.91
2016-07-15T08:33:30.124Z,19.96
2016-07-15T08:34:30.128Z,20.2
2016-07-15T08:35:28.691Z,20.38
2016-07-15T08:36:30.100Z,20.44
2016-07-15T08:37:30.089Z,20.49
2016-07-15T08:38:29.357Z,21.03
2016-07-15T08:39:30.091Z,21.41
2016-07-15T08:40:30.056Z,21.79
2016-07-15T08:41:29.351Z,22.06
2016-07-15T08:42:30.023Z,22.18
2016-07-15T08:43:28.639Z,22.35
2016-07-15T08:44:29.295Z,22.42
2016-07-15T08:45:29.994Z,22
2016-07-15T08:46:30.001Z,21.47
2016-07-15T08:47:29.991Z,20.87
2016-07-15T08:48:29.970Z,21.21
2016-07-15T08:49:29.972Z,21.02
2016-07-15T08:50:29.954Z,20.92
2016-07-15T08:51:29.947Z,20.91
2016-07-15T08:52:29.219Z,21.04
2016-07-15T08:53:29.214Z,20.97
2016-07-15T08:54:28.475Z,21.4
2016-07-15T08:55:29.911Z,21.58
2016-07-15T08:56:29.160Z,21.79
2016-07-15T08:57:29.899Z,21.95
2016-07-15T08:58:29.168Z,21.76
2016-07-15T08:59:29.879Z,21.84
2016-07-15T09:00:29.836Z,21.28
2016-07-15T09:01:29.897Z,20.78
2016-07-15T09:02:29.117Z,20.41
2016-07-15T09:03:29.857Z,20.44
2016-07-15T09:04:29.097Z,20.33
2016-07-15T09:05:29.832Z,20.08
2016-07-15T09:06:29.070Z,20.38
2016-07-15T09:07:29.800Z,21.09
2016-07-15T09:08:29.767Z,21.65
2016-07-15T09:09:29.797Z,22.21
2016-07-15T09:10:29.745Z,22.66
2016-07-15T09:11:29.080Z,23.06
2016-07-15T09:12:29.734Z,23.4
2016-07-15T09:13:29.769Z,23.6
2016-07-15T09:14:29.703Z,23.66
2016-07-15T09:15:28.277Z,23.75
2016-07-15T09:16:28.319Z,23.75
2016-07-15T09:17:28.980Z,23.57
2016-07-15T09:18:28.968Z,23.04
2016-07-15T09:19:28.252Z,22.45
2016-07-15T09:20:29.672Z,22.03
2016-07-15T09:21:29.676Z,21.9
2016-07-15T09:22:28.228Z,21.47
2016-07-15T09:23:29.660Z,21.24
2016-07-15T09:24:29.656Z,20.97
2016-07-15T09:25:29.630Z,20.81
2016-07-15T09:26:29.630Z,20.87
2016-07-15T09:27:28.185Z,20.81
2016-07-15T09:28:29.622Z,20.97
2016-07-15T09:29:28.970Z,20.92
2016-07-15T09:30:29.602Z,21.56
2016-07-15T09:31:29.600Z,21.81
2016-07-15T09:32:29.572Z,21.54
2016-07-15T09:33:29.582Z,21.58
2016-07-15T09:34:29.569Z,21.59
2016-07-15T09:35:29.560Z,21.77
2016-07-15T09:36:29.546Z,21.79
2016-07-15T09:37:29.533Z,21.8
2016-07-15T09:38:29.524Z,21.83
2016-07-15T09:39:29.528Z,21.66
2016-07-15T09:40:29.505Z,21.4
2016-07-15T09:41:28.802Z,21.21
2016-07-15T09:42:29.495Z,21
2016-07-15T09:43:29.498Z,20.55
2016-07-15T09:44:28.756Z,20.44
2016-07-15T09:45:29.469Z,20.63
2016-07-15T09:46:29.511Z,20.38
2016-07-15T09:47:29.441Z,20.32
2016-07-15T09:48:28.763Z,20.47
2016-07-15T09:49:29.440Z,20.44
2016-07-15T09:50:29.445Z,20.44
2016-07-15T09:51:29.412Z,20.4
2016-07-15T09:52:28.699Z,20.41
2016-07-15T09:53:28.679Z,20.44
2016-07-15T09:54:29.377Z,20.31
2016-07-15T09:55:29.362Z,20.51
2016-07-15T09:56:28.641Z,20.91
2016-07-15T09:57:27.976Z,21.25
2016-07-15T09:58:29.333Z,21.56
2016-07-15T09:59:29.317Z,21.79
2016-07-15T10:00:29.369Z,22.08
2016-07-15T10:01:28.589Z,22.4
2016-07-15T10:02:29.305Z,22.8
2016-07-15T10:03:29.286Z,23.12
2016-07-15T10:04:28.579Z,23.78
2016-07-15T10:05:29.272Z,23.85
2016-07-15T10:06:28.544Z,23.77
2016-07-15T10:07:29.261Z,23.63
2016-07-15T10:08:29.248Z,23.03
2016-07-15T10:09:29.245Z,22.67
2016-07-15T10:10:29.258Z,22.66
2016-07-15T10:11:29.230Z,22.7
2016-07-15T10:12:29.245Z,22.88
2016-07-15T10:13:28.495Z,22.92
2016-07-15T10:14:29.218Z,22.91
2016-07-15T10:15:29.211Z,22.87
2016-07-15T10:16:29.185Z,22.77
2016-07-15T10:17:29.183Z,22.62
2016-07-15T10:18:29.180Z,22.69
2016-07-15T10:19:28.447Z,22.82
2016-07-15T10:20:29.156Z,22.58
2016-07-15T10:21:29.146Z,22.69
2016-07-15T10:22:29.150Z,22.69
2016-07-15T10:23:28.429Z,22.65
2016-07-15T10:24:29.121Z,22.51
2016-07-15T10:25:28.451Z,23.13
2016-07-15T10:26:28.399Z,23.28
2016-07-15T10:27:29.110Z,23.45
2016-07-15T10:28:28.402Z,23.84
2016-07-15T10:29:29.083Z,23.89
2016-07-15T10:30:27.650Z,24
2016-07-15T10:31:29.134Z,23.48
2016-07-15T10:32:29.077Z,23.32
2016-07-15T10:33:29.068Z,23.16
2016-07-15T10:34:29.048Z,22.7
2016-07-15T10:35:27.606Z,22.25
2016-07-15T10:36:28.332Z,22.1
2016-07-15T10:37:29.026Z,22.12
2016-07-15T10:38:28.307Z,21.76
2016-07-15T10:39:29.032Z,21.77
2016-07-15T10:40:28.279Z,21.96
2016-07-15T10:41:28.274Z,22.61
2016-07-15T10:42:28.985Z,23.02
2016-07-15T10:43:28.969Z,22.88
2016-07-15T10:44:28.977Z,22.66
2016-07-15T10:45:27.541Z,22.55
2016-07-15T10:46:28.959Z,22.3
2016-07-15T10:47:28.314Z,22.14
2016-07-15T10:48:27.501Z,22.06
2016-07-15T10:49:28.984Z,21.79
2016-07-15T10:50:28.900Z,21.84
2016-07-15T10:51:28.912Z,21.8
2016-07-15T10:52:28.900Z,21.97
2016-07-15T10:53:28.179Z,22.32
2016-07-15T10:54:28.157Z,22.82
2016-07-15T10:55:28.155Z,23.06
2016-07-15T10:56:28.140Z,22.95
2016-07-15T10:57:28.125Z,23.02
2016-07-15T10:58:28.843Z,23.29
2016-07-15T10:59:28.834Z,23.38
2016-07-15T11:00:28.822Z,23.45
2016-07-15T11:01:28.107Z,23.54
2016-07-15T11:02:28.811Z,23.57
2016-07-15T11:03:28.091Z,23.35
2016-07-15T11:04:28.788Z,23.38
2016-07-15T11:05:28.779Z,23.67
2016-07-15T11:06:28.769Z,24.25
2016-07-15T11:07:28.791Z,24.51
2016-07-15T11:08:28.747Z,24.69
2016-07-15T11:09:28.034Z,24.97
2016-07-15T11:10:28.749Z,24.87
2016-07-15T11:11:28.724Z,24.87
2016-07-15T11:12:28.159Z,24.61
2016-07-15T11:13:28.718Z,24.75
2016-07-15T11:14:27.274Z,24.58
2016-07-15T11:15:28.698Z,24.32
2016-07-15T11:16:28.104Z,23.77
2016-07-15T11:17:27.982Z,23.36
2016-07-15T11:18:28.691Z,22.66
2016-07-15T11:19:27.950Z,22.54
2016-07-15T11:20:28.706Z,22.42
2016-07-15T11:21:28.659Z,22.45
2016-07-15T11:22:28.668Z,22.54
2016-07-15T11:23:28.638Z,22.89
2016-07-15T11:24:28.631Z,23.33
2016-07-15T11:25:28.808Z,23.57
2016-07-15T11:26:28.688Z,23.51
2016-07-15T11:27:28.600Z,23.7
2016-07-15T11:28:27.863Z,23.8
2016-07-15T11:29:27.860Z,23.72
2016-07-15T11:30:28.571Z,23.63
2016-07-15T11:31:28.564Z,23.19
2016-07-15T11:32:27.914Z,22.88
2016-07-15T11:33:28.552Z,22.88
2016-07-15T11:34:28.539Z,22.82
2016-07-15T11:35:28.524Z,22.91
2016-07-15T11:36:27.809Z,22.97
2016-07-15T11:37:28.498Z,23.63
2016-07-15T11:38:28.485Z,23.84
2016-07-15T11:39:27.769Z,24.14
2016-07-15T11:40:28.486Z,24.1
2016-07-15T11:41:28.470Z,23.92
2016-07-15T11:42:28.501Z,24.09
2016-07-15T11:43:28.465Z,24.12
2016-07-15T11:44:27.740Z,24.37
2016-07-15T11:45:27.727Z,24.81
2016-07-15T11:46:28.429Z,24.82
2016-07-15T11:47:28.428Z,24.51
2016-07-15T11:48:27.710Z,24.62
2016-07-15T11:49:28.416Z,25.02
2016-07-15T11:50:27.680Z,24.97
2016-07-15T11:51:27.678Z,24.62
2016-07-15T11:52:28.378Z,23.96
2016-07-15T11:53:28.376Z,23.85
2016-07-15T11:54:27.645Z,23.7
2016-07-15T11:55:27.628Z,23.6
2016-07-15T11:56:26.916Z,23.4
2016-07-15T11:57:28.357Z,23.32
2016-07-15T11:58:26.897Z,23.44
2016-07-15T11:59:28.352Z,23.97
2016-07-15T12:00:28.312Z,24.52
2016-07-15T12:01:27.612Z,24.89
2016-07-15T12:02:27.589Z,25.08
2016-07-15T12:03:27.596Z,25.22
2016-07-15T12:04:28.286Z,24.87
2016-07-15T12:05:26.854Z,24.47
2016-07-15T12:06:27.558Z,24.34
2016-07-15T12:07:28.254Z,23.95
2016-07-15T12:08:26.813Z,23.85
2016-07-15T12:09:28.281Z,23.7
2016-07-15T12:10:28.225Z,23.57
2016-07-15T12:11:27.520Z,23.35
2016-07-15T12:12:28.210Z,23.16
2016-07-15T12:13:27.506Z,22.74
2016-07-15T12:14:27.491Z,22.62
2016-07-15T12:15:28.196Z,22.39
2016-07-15T12:16:27.480Z,22.33
2016-07-15T12:17:26.821Z,22.33
2016-07-15T12:18:27.457Z,22.24
2016-07-15T12:19:28.159Z,22.18
2016-07-15T12:20:28.153Z,22.12
2016-07-15T12:21:28.138Z,22.11
2016-07-15T12:22:28.139Z,22.74
2016-07-15T12:23:28.117Z,23.22
2016-07-15T12:24:28.107Z,23.52
2016-07-15T12:25:28.116Z,23.88
2016-07-15T12:26:28.127Z,24.21
2016-07-15T12:27:27.374Z,24.39
2016-07-15T12:28:28.065Z,24.85
2016-07-15T12:29:28.080Z,24.92
2016-07-15T12:30:26.631Z,24.81
2016-07-15T12:31:27.328Z,24.58
2016-07-15T12:32:28.040Z,24.44
2016-07-15T12:33:28.027Z,24.34
2016-07-15T12:34:28.022Z,24.32
2016-07-15T12:35:28.005Z,24.22
2016-07-15T12:36:27.990Z,24.09
2016-07-15T12:37:27.992Z,24.28
2016-07-15T12:38:27.269Z,24.37
2016-07-15T12:39:27.984Z,24.12
2016-07-15T12:40:26.554Z,23.96
2016-07-15T12:41:27.258Z,23.67
2016-07-15T12:42:27.249Z,23.63
2016-07-15T12:43:27.223Z,23.66
2016-07-15T12:44:27.947Z,23.42
2016-07-15T12:45:27.207Z,23.28
2016-07-15T12:46:27.208Z,23.22
2016-07-15T12:47:27.194Z,22.94
2016-07-15T12:48:27.193Z,23.1
2016-07-15T12:49:27.175Z,23.1
2016-07-15T12:50:27.899Z,23.17
2016-07-15T12:51:27.888Z,23.51
2016-07-15T12:52:27.145Z,23.82
2016-07-15T12:53:27.140Z,24.34
2016-07-15T12:54:27.190Z,24.75
2016-07-15T12:55:26.411Z,24.89
2016-07-15T12:56:27.117Z,24.69